Time;durP1;ratioP1;P1;durP2;ratioP2;P2;SDS_P1;SDS_P2;PMS_P1;PMS_P2;Temp;Humidity;BMP_temperature;BMP_pressure;BME280_temperature;BME280_humidity;BME280_pressure;Samples;Min_cycle;Max_cycle;Signal;HPM_P1;HPM_P2
2024/01/18 00:01:58;;;;;;;;;31.25;21.50;;;;;-144.24;100.00;114865.94;5116241;27;73455;-71
2024/01/18 00:04:24;;;;;;;;;26.25;21.75;;;;;-144.24;100.00;114865.94;5117790;27;45432;-72
2024/01/18 00:06:49;;;;;;;;;19.00;12.25;;;;;-144.24;100.00;114865.94;5117931;27;45431;-73
2024/01/18 00:09:14;;;;;;;;;19.25;15.50;;;;;-144.24;100.00;114865.94;5117706;27;57760;-71
2024/01/18 00:11:40;;;;;;;;;19.75;16.50;;;;;-144.24;100.00;114865.94;5107416;27;67299;-73
2024/01/18 00:14:05;;;;;;;;;23.50;15.25;;;;;-144.24;100.00;114865.94;5117769;27;46475;-71
2024/01/18 00:16:33;;;;;;;;;18.75;11.50;;;;;-144.24;100.00;114865.94;5114393;27;64163;-71
2024/01/18 00:18:58;;;;;;;;;29.25;20.00;;;;;-144.24;100.00;114865.94;5116775;27;45494;-73
2024/01/18 00:21:23;;;;;;;;;26.00;15.25;;;;;-144.24;100.00;114865.94;5110619;27;65236;-72
2024/01/18 00:23:49;;;;;;;;;12.50;12.50;;;;;-144.24;100.00;114865.94;5117054;27;48225;-71
2024/01/18 00:26:14;;;;;;;;;16.25;12.50;;;;;-144.24;100.00;114865.94;5116874;27;57921;-71
2024/01/18 00:28:39;;;;;;;;;18.75;13.75;;;;;-144.24;100.00;114865.94;5115116;27;54632;-74
2024/01/18 00:31:05;;;;;;;;;22.00;13.00;;;;;-144.24;100.00;114865.94;5116646;27;65940;-71
2024/01/18 00:33:30;;;;;;;;;15.50;10.25;;;;;-144.24;100.00;114865.94;5114198;27;59886;-71
2024/01/18 00:35:55;;;;;;;;;11.50;10.25;;;;;-144.24;100.00;114865.94;5117718;27;45378;-73
2024/01/18 00:38:21;;;;;;;;;11.75;11.00;;;;;-144.24;100.00;114865.94;5112801;27;58844;-73
2024/01/18 00:40:46;;;;;;;;;15.50;13.50;;;;;-144.24;100.00;114865.94;5112855;27;45627;-73
2024/01/18 00:43:11;;;;;;;;;13.50;9.00;;;;;-144.24;100.00;114865.94;5114879;27;68575;-71
2024/01/18 00:45:37;;;;;;;;;24.25;16.25;;;;;-144.24;100.00;114865.94;5115328;27;45419;-71
2024/01/18 00:48:02;;;;;;;;;16.00;13.00;;;;;-144.24;100.00;114865.94;5110848;27;45518;-71
2024/01/18 00:50:28;;;;;;;;;23.00;18.50;;;;;-144.24;100.00;114865.94;5114595;27;47161;-71
2024/01/18 00:52:53;;;;;;;;;14.75;12.25;;;;;-144.24;100.00;114865.94;5116448;27;64931;-71
2024/01/18 00:55:18;;;;;;;;;19.75;16.00;;;;;-144.24;100.00;114865.94;5112244;27;65412;-72
2024/01/18 00:57:44;;;;;;;;;22.75;16.00;;;;;-144.24;100.00;114865.94;5103714;27;57741;-70
2024/01/18 01:00:10;;;;;;;;;17.75;16.00;;;;;-144.24;100.00;114865.94;5115494;27;45631;-71
2024/01/18 01:02:35;;;;;;;;;20.25;19.25;;;;;-144.24;100.00;114865.94;5114603;27;46243;-72
2024/01/18 01:05:00;;;;;;;;;21.25;17.00;;;;;-144.24;100.00;114865.94;5113598;27;63359;-73
2024/01/18 01:07:26;;;;;;;;;17.25;13.00;;;;;-144.24;100.00;114865.94;5115911;27;45433;-71
2024/01/18 01:09:51;;;;;;;;;14.00;12.50;;;;;-144.24;100.00;114865.94;5115135;27;57991;-73
2024/01/18 01:12:17;;;;;;;;;17.00;11.50;;;;;-144.24;100.00;114865.94;5111208;27;45463;-71
2024/01/18 01:14:42;;;;;;;;;11.75;10.00;;;;;-144.24;100.00;114865.94;5115969;27;45557;-72
2024/01/18 01:17:07;;;;;;;;;11.25;11.00;;;;;-144.24;100.00;114865.94;5116936;27;55462;-72
2024/01/18 01:19:33;;;;;;;;;16.75;10.00;;;;;-144.24;100.00;114865.94;5118985;27;72583;-73
2024/01/18 01:21:58;;;;;;;;;12.00;10.00;;;;;-144.24;100.00;114865.94;5101451;27;45456;-73
2024/01/18 01:24:23;;;;;;;;;11.00;11.00;;;;;-144.24;100.00;114865.94;5112261;27;61621;-72
2024/01/18 01:26:49;;;;;;;;;10.00;9.00;;;;;-144.24;100.00;114865.94;5117706;27;45219;-71
2024/01/18 01:29:15;;;;;;;;;10.50;9.00;;;;;-144.24;100.00;114865.94;5114824;27;70783;-72
2024/01/18 01:31:40;;;;;;;;;15.25;11.25;;;;;-144.24;100.00;114865.94;5116507;27;45405;-73
2024/01/18 01:34:06;;;;;;;;;12.75;11.25;;;;;-144.24;100.00;114865.94;5117709;27;66820;-71
2024/01/18 01:36:31;;;;;;;;;15.25;12.00;;;;;-144.24;100.00;114865.94;5119280;27;61708;-74
2024/01/18 01:38:56;;;;;;;;;9.00;5.00;;;;;-144.24;100.00;114865.94;5118200;27;71746;-74
2024/01/18 01:41:22;;;;;;;;;12.75;9.25;;;;;-144.24;100.00;114865.94;5119171;27;69401;-72
2024/01/18 01:44:00;;;;;;;;;18.75;14.00;;;;;-144.24;100.00;114865.94;5113847;27;45320;-74
2024/01/18 01:46:26;;;;;;;;;17.00;16.75;;;;;-144.24;100.00;114865.94;5117791;27;45559;-71
2024/01/18 01:49:00;;;;;;;;;21.25;15.00;;;;;-144.24;100.00;114865.94;5118502;27;46388;-71
2024/01/18 01:51:28;;;;;;;;;16.75;13.00;;;;;-144.24;100.00;114865.94;5097416;27;45680;-71
2024/01/18 01:53:56;;;;;;;;;21.25;16.00;;;;;-144.24;100.00;114865.94;5098508;27;45489;-71
2024/01/18 01:56:21;;;;;;;;;18.00;16.00;;;;;-144.24;100.00;114865.94;5116144;27;45519;-72
2024/01/18 01:58:49;;;;;;;;;17.50;15.00;;;;;-144.24;100.00;114865.94;5118970;27;45657;-72
2024/01/18 02:01:14;;;;;;;;;19.00;15.25;;;;;-144.24;100.00;114865.94;5118443;27;45358;-71
2024/01/18 02:03:39;;;;;;;;;22.00;15.00;;;;;-144.24;100.00;114865.94;5100684;27;45258;-71
2024/01/18 02:06:05;;;;;;;;;21.00;16.25;;;;;-144.24;100.00;114865.94;5099557;27;66618;-71
2024/01/18 02:08:30;;;;;;;;;15.00;8.75;;;;;-144.24;100.00;114865.94;5099983;27;67609;-73
2024/01/18 02:10:56;;;;;;;;;19.00;15.00;;;;;-144.24;100.00;114865.94;5115873;27;70057;-72
2024/01/18 02:13:22;;;;;;;;;19.25;15.25;;;;;-144.24;100.00;114865.94;5098521;27;45576;-72
2024/01/18 02:15:47;;;;;;;;;19.50;18.25;;;;;-144.24;100.00;114865.94;5117342;27;66041;-71
2024/01/18 02:18:12;;;;;;;;;20.00;15.00;;;;;-144.24;100.00;114865.94;5118816;27;71627;-74
2024/01/18 02:20:38;;;;;;;;;18.50;15.50;;;;;-144.24;100.00;114865.94;5116036;27;65936;-71
2024/01/18 02:23:05;;;;;;;;;19.25;19.25;;;;;-144.24;100.00;114865.94;5118840;27;56586;-71
2024/01/18 02:25:30;;;;;;;;;26.00;21.75;;;;;-144.24;100.00;114865.94;5119173;27;54434;-71
2024/01/18 02:27:57;;;;;;;;;25.00;19.50;;;;;-144.24;100.00;114865.94;5119637;27;46778;-73
2024/01/18 02:30:22;;;;;;;;;16.50;15.75;;;;;-144.24;100.00;114865.94;5096373;27;45502;-71
2024/01/18 02:32:48;;;;;;;;;22.00;15.75;;;;;-144.24;100.00;114865.94;5119577;27;45447;-71
2024/01/18 02:35:14;;;;;;;;;18.75;14.75;;;;;-144.24;100.00;114865.94;5119325;27;45615;-73
2024/01/18 02:37:39;;;;;;;;;21.00;15.25;;;;;-144.24;100.00;114865.94;5100672;27;46301;-71
2024/01/18 02:40:07;;;;;;;;;19.25;16.25;;;;;-144.24;100.00;114865.94;5118091;27;69702;-71
2024/01/18 02:42:32;;;;;;;;;22.75;17.25;;;;;-144.24;100.00;114865.94;5119237;27;45416;-73
2024/01/18 02:44:58;;;;;;;;;19.75;14.50;;;;;-144.24;100.00;114865.94;5100947;27;45233;-70
2024/01/18 02:47:27;;;;;;;;;19.50;15.00;;;;;-144.24;100.00;114865.94;5120429;27;45713;-73
2024/01/18 02:49:53;;;;;;;;;11.25;8.75;;;;;-144.24;100.00;114865.94;5115456;27;45415;-74
2024/01/18 02:52:18;;;;;;;;;18.25;13.25;;;;;-144.24;100.00;114865.94;5118985;27;51183;-72
2024/01/18 02:54:44;;;;;;;;;16.00;15.00;;;;;-144.24;100.00;114865.94;5117622;27;45309;-71
2024/01/18 02:57:09;;;;;;;;;16.50;9.25;;;;;-144.24;100.00;114865.94;5115094;27;69533;-71
2024/01/18 02:59:35;;;;;;;;;14.25;12.00;;;;;-144.24;100.00;114865.94;5118102;27;45492;-71
2024/01/18 03:02:00;;;;;;;;;19.25;13.75;;;;;-144.24;100.00;114865.94;5116775;27;68518;-72
2024/01/18 03:04:25;;;;;;;;;18.00;15.00;;;;;-144.24;100.00;114865.94;5118210;27;58664;-74
2024/01/18 03:06:51;;;;;;;;;17.00;13.00;;;;;-144.24;100.00;114865.94;5098794;27;65672;-71
2024/01/18 03:09:16;;;;;;;;;19.50;11.50;;;;;-144.24;100.00;114865.94;5118588;27;45218;-73
2024/01/18 03:11:42;;;;;;;;;10.25;9.25;;;;;-144.24;100.00;114865.94;5116235;27;63696;-74
2024/01/18 03:14:07;;;;;;;;;11.25;10.50;;;;;-144.24;100.00;114865.94;5116824;27;51990;-71
2024/01/18 03:16:32;;;;;;;;;18.25;11.50;;;;;-144.24;100.00;114865.94;5118206;27;46206;-72
2024/01/18 03:18:58;;;;;;;;;6.75;6.50;;;;;-144.24;100.00;114865.94;5098243;27;70668;-72
2024/01/18 03:21:23;;;;;;;;;7.00;7.00;;;;;-144.24;100.00;114865.94;5094455;27;45591;-73
2024/01/18 03:23:48;;;;;;;;;10.00;8.50;;;;;-144.24;100.00;114865.94;5115302;27;45372;-70
2024/01/18 03:26:14;;;;;;;;;9.25;8.75;;;;;-144.24;100.00;114865.94;5114790;27;45273;-73
2024/01/18 03:28:39;;;;;;;;;9.00;9.00;;;;;-144.24;100.00;114865.94;5117366;27;63227;-71
2024/01/18 03:31:04;;;;;;;;;12.00;6.00;;;;;-144.24;100.00;114865.94;5118630;27;45361;-70
2024/01/18 03:33:30;;;;;;;;;9.25;8.00;;;;;-144.24;100.00;114865.94;5117289;27;66181;-72
2024/01/18 03:35:57;;;;;;;;;11.00;9.00;;;;;-144.24;100.00;114865.94;5118723;27;46461;-72
2024/01/18 03:38:22;;;;;;;;;11.00;11.00;;;;;-144.24;100.00;114865.94;5117152;27;45440;-73
2024/01/18 03:40:47;;;;;;;;;14.25;8.75;;;;;-144.24;100.00;114865.94;5114709;27;58179;-75
2024/01/18 03:43:12;;;;;;;;;12.25;9.00;;;;;-144.24;100.00;114865.94;5106784;27;66365;-72
2024/01/18 03:45:38;;;;;;;;;8.25;8.25;;;;;-144.24;100.00;114865.94;5116454;27;63864;-70
2024/01/18 03:48:04;;;;;;;;;12.50;8.00;;;;;-144.24;100.00;114865.94;5115615;27;45420;-72
2024/01/18 03:50:29;;;;;;;;;6.75;6.75;;;;;-144.24;100.00;114865.94;5115385;27;45536;-72
2024/01/18 03:52:54;;;;;;;;;10.75;5.00;;;;;-144.24;100.00;114865.94;5110607;27;64384;-72
2024/01/18 03:55:20;;;;;;;;;8.25;6.25;;;;;-144.24;100.00;114865.94;5110950;27;74215;-72
2024/01/18 03:57:45;;;;;;;;;8.25;6.25;;;;;-144.24;100.00;114865.94;5107951;27;45381;-72
2024/01/18 04:00:12;;;;;;;;;9.50;8.75;;;;;-144.24;100.00;114865.94;5115652;27;47192;-74
2024/01/18 04:02:38;;;;;;;;;5.25;4.25;;;;;-144.24;100.00;114865.94;5110334;27;45613;-71
2024/01/18 04:05:04;;;;;;;;;7.50;6.00;;;;;-144.24;100.00;114865.94;5108803;27;45418;-72
2024/01/18 04:07:30;;;;;;;;;8.75;5.75;;;;;-144.24;100.00;114865.94;5114585;27;45558;-71
2024/01/18 04:09:55;;;;;;;;;10.00;7.00;;;;;-144.24;100.00;114865.94;5110343;27;45797;-72
2024/01/18 04:12:20;;;;;;;;;10.25;8.00;;;;;-144.24;100.00;114865.94;5097716;27;68327;-71
2024/01/18 04:14:46;;;;;;;;;16.00;9.00;;;;;-144.24;100.00;114865.94;5110834;27;69554;-71
2024/01/18 04:17:11;;;;;;;;;16.75;12.00;;;;;-144.24;100.00;114865.94;5116312;27;45428;-72
2024/01/18 04:19:38;;;;;;;;;15.50;10.00;;;;;-144.24;100.00;114865.94;5115924;27;46059;-71
2024/01/18 04:22:03;;;;;;;;;11.50;9.00;;;;;-144.24;100.00;114865.94;5114733;27;45511;-72
2024/01/18 04:24:29;;;;;;;;;10.00;10.00;;;;;-144.24;100.00;114865.94;5113685;27;72394;-72
2024/01/18 04:26:54;;;;;;;;;14.25;11.50;;;;;-144.24;100.00;114865.94;5097833;27;70756;-73
2024/01/18 04:29:19;;;;;;;;;10.25;8.25;;;;;-144.24;100.00;114865.94;5107094;27;67200;-71
2024/01/18 04:31:45;;;;;;;;;7.75;6.00;;;;;-144.24;100.00;114865.94;5112495;27;52940;-72
2024/01/18 04:34:10;;;;;;;;;21.25;13.25;;;;;-144.24;100.00;114865.94;5110242;27;67495;-71
2024/01/18 04:36:35;;;;;;;;;11.50;8.00;;;;;-144.24;100.00;114865.94;5109977;27;67983;-71
2024/01/18 04:39:01;;;;;;;;;13.00;11.50;;;;;-144.24;100.00;114865.94;5096801;27;67839;-72
2024/01/18 04:41:26;;;;;;;;;18.25;10.25;;;;;-144.24;100.00;114865.94;5110961;27;65401;-74
2024/01/18 04:43:52;;;;;;;;;13.50;11.50;;;;;-144.24;100.00;114865.94;5116149;27;46186;-72
2024/01/18 04:46:17;;;;;;;;;19.50;9.50;;;;;-144.24;100.00;114865.94;5115139;27;45670;-73
2024/01/18 04:48:44;;;;;;;;;11.75;10.50;;;;;-144.24;100.00;114865.94;5106986;27;45789;-72
2024/01/18 04:51:10;;;;;;;;;13.75;11.75;;;;;-144.24;100.00;114865.94;5118582;27;45579;-73
2024/01/18 04:53:35;;;;;;;;;12.75;9.75;;;;;-144.24;100.00;114865.94;5117145;27;68833;-72
2024/01/18 04:56:00;;;;;;;;;15.00;11.00;;;;;-144.24;100.00;114865.94;5116369;27;70913;-72
2024/01/18 04:58:26;;;;;;;;;17.25;11.00;;;;;-144.24;100.00;114865.94;5116570;27;45297;-71
2024/01/18 05:00:51;;;;;;;;;12.00;12.00;;;;;-144.24;100.00;114865.94;5116419;27;45602;-71
2024/01/18 05:03:17;;;;;;;;;14.75;11.50;;;;;-144.24;100.00;114865.94;5114027;27;46205;-71
2024/01/18 05:05:42;;;;;;;;;16.75;12.00;;;;;-144.24;100.00;114865.94;5098922;27;45441;-71
2024/01/18 05:08:08;;;;;;;;;16.75;15.50;;;;;-144.24;100.00;114865.94;5109714;27;60793;-71
2024/01/18 05:10:34;;;;;;;;;16.75;14.25;;;;;-144.24;100.00;114865.94;5119985;27;45268;-71
2024/01/18 05:12:59;;;;;;;;;19.25;16.00;;;;;-144.24;100.00;114865.94;5117564;27;45502;-74
2024/01/18 05:15:25;;;;;;;;;22.75;15.75;;;;;-144.24;100.00;114865.94;5111505;27;45496;-71
2024/01/18 05:17:51;;;;;;;;;18.25;15.25;;;;;-144.24;100.00;114865.94;5118941;27;45437;-72
2024/01/18 05:20:17;;;;;;;;;21.00;17.00;;;;;-144.24;100.00;114865.94;5115284;27;45570;-71
2024/01/18 05:22:43;;;;;;;;;28.50;19.75;;;;;-144.24;100.00;114865.94;5114035;27;46881;-73
2024/01/18 05:25:08;;;;;;;;;21.25;20.75;;;;;-144.24;100.00;114865.94;5120125;27;45425;-73
2024/01/18 05:27:33;;;;;;;;;21.75;16.00;;;;;-144.24;100.00;114865.94;5114115;27;58216;-72
2024/01/18 05:29:59;;;;;;;;;30.50;25.50;;;;;-144.24;100.00;114865.94;5111527;27;45385;-71
2024/01/18 05:32:25;;;;;;;;;24.50;22.25;;;;;-144.24;100.00;114865.94;5119421;27;46517;-74
2024/01/18 05:34:51;;;;;;;;;28.75;22.00;;;;;-144.24;100.00;114865.94;5119568;27;45265;-72
2024/01/18 05:37:17;;;;;;;;;26.00;18.75;;;;;-144.24;100.00;114865.94;5117379;27;45414;-73
2024/01/18 05:39:42;;;;;;;;;25.00;20.25;;;;;-144.24;100.00;114865.94;5111850;27;45425;-71
2024/01/18 05:42:08;;;;;;;;;36.75;22.50;;;;;-144.24;100.00;114865.94;5119777;27;46445;-73
2024/01/18 05:44:33;;;;;;;;;34.50;23.00;;;;;-144.24;100.00;114865.94;5098468;27;45413;-71
2024/01/18 05:46:59;;;;;;;;;31.25;22.25;;;;;-144.24;100.00;114865.94;5117798;27;45433;-72
2024/01/18 05:49:24;;;;;;;;;32.25;27.75;;;;;-144.24;100.00;114865.94;5119581;27;45369;-71
2024/01/18 05:51:50;;;;;;;;;32.00;23.25;;;;;-144.24;100.00;114865.94;5114210;27;46479;-71
2024/01/18 05:54:15;;;;;;;;;35.25;26.50;;;;;-144.24;100.00;114865.94;5109591;27;66448;-71
2024/01/18 05:56:41;;;;;;;;;27.25;21.50;;;;;-144.24;100.00;114865.94;5116949;27;65315;-71
2024/01/18 05:59:06;;;;;;;;;29.75;24.50;;;;;-144.24;100.00;114865.94;5100590;27;45516;-71
2024/01/18 06:01:32;;;;;;;;;23.50;19.25;;;;;-144.24;100.00;114865.94;5116686;27;47306;-71
2024/01/18 06:03:57;;;;;;;;;23.00;21.00;;;;;-144.24;100.00;114865.94;5098612;27;45677;-71
2024/01/18 06:06:23;;;;;;;;;26.50;22.25;;;;;-144.24;100.00;114865.94;5115557;27;45530;-72
2024/01/18 06:08:48;;;;;;;;;24.25;21.75;;;;;-144.24;100.00;114865.94;5112973;27;45601;-73
2024/01/18 06:11:14;;;;;;;;;25.50;18.25;;;;;-144.24;100.00;114865.94;5099654;27;46297;-72
2024/01/18 06:13:40;;;;;;;;;24.50;19.50;;;;;-144.24;100.00;114865.94;5115495;27;45436;-72
2024/01/18 06:16:09;;;;;;;;;23.00;22.25;;;;;-144.24;100.00;114865.94;5111713;27;45532;-70
2024/01/18 06:18:35;;;;;;;;;24.00;20.75;;;;;-144.24;100.00;114865.94;5115330;27;45407;-72
2024/01/18 06:21:00;;;;;;;;;26.75;25.25;;;;;-144.24;100.00;114865.94;5118126;27;45293;-72
2024/01/18 06:23:26;;;;;;;;;32.50;23.50;;;;;-144.24;100.00;114865.94;5113650;27;73681;-71
2024/01/18 06:25:51;;;;;;;;;34.75;27.75;;;;;-144.24;100.00;114865.94;5116673;27;45314;-71
2024/01/18 06:28:16;;;;;;;;;33.00;25.00;;;;;-144.24;100.00;114865.94;5117259;27;61563;-71
2024/01/18 06:30:44;;;;;;;;;27.25;21.50;;;;;-144.24;100.00;114865.94;5112331;27;64876;-71
2024/01/18 06:33:10;;;;;;;;;33.75;25.25;;;;;-144.24;100.00;114865.94;5112697;27;45402;-72
2024/01/18 06:35:35;;;;;;;;;27.50;19.50;;;;;-144.24;100.00;114865.94;5113790;27;45509;-71
2024/01/18 06:38:01;;;;;;;;;26.00;23.25;;;;;-144.24;100.00;114865.94;5098068;27;46486;-71
2024/01/18 06:40:26;;;;;;;;;25.00;22.25;;;;;-144.24;100.00;114865.94;5114265;27;72486;-70
2024/01/18 06:42:51;;;;;;;;;31.25;21.50;;;;;-144.24;100.00;114865.94;5110230;27;70673;-70
2024/01/18 06:45:17;;;;;;;;;25.75;20.00;;;;;-144.24;100.00;114865.94;5115635;27;45337;-71
2024/01/18 06:47:42;;;;;;;;;24.25;18.75;;;;;-144.24;100.00;114865.94;5113436;27;45544;-70
2024/01/18 06:50:10;;;;;;;;;30.50;27.00;;;;;-144.24;100.00;114865.94;5112714;27;67907;-70
2024/01/18 06:52:36;;;;;;;;;29.00;18.00;;;;;-144.24;100.00;114865.94;5113772;27;45462;-70
2024/01/18 06:55:01;;;;;;;;;33.00;24.75;;;;;-144.24;100.00;114865.94;5108007;27;45469;-73
2024/01/18 06:57:26;;;;;;;;;33.75;23.75;;;;;-144.24;100.00;114865.94;5111899;27;45405;-73
2024/01/18 06:59:54;;;;;;;;;36.75;26.75;;;;;-144.24;100.00;114865.94;5115428;27;72599;-70
2024/01/18 07:02:19;;;;;;;;;32.00;26.50;;;;;-144.24;100.00;114865.94;5113687;27;45371;-71
2024/01/18 07:04:45;;;;;;;;;41.00;29.75;;;;;-144.24;100.00;114865.94;5117910;27;45271;-70
2024/01/18 07:07:10;;;;;;;;;39.00;28.25;;;;;-144.24;100.00;114865.94;5108102;27;45402;-73
2024/01/18 07:09:35;;;;;;;;;39.25;34.00;;;;;-144.24;100.00;114865.94;5117230;27;73511;-73
2024/01/18 07:12:01;;;;;;;;;36.25;32.25;;;;;-144.24;100.00;114865.94;5109768;27;64728;-70
2024/01/18 07:14:26;;;;;;;;;42.00;35.75;;;;;-144.24;100.00;114865.94;5106442;27;65194;-72
2024/01/18 07:16:51;;;;;;;;;33.25;26.00;;;;;-144.24;100.00;114865.94;5115923;27;45633;-70
2024/01/18 07:19:17;;;;;;;;;37.00;28.00;;;;;-144.24;100.00;114865.94;5110821;27;61495;-70
2024/01/18 07:21:42;;;;;;;;;39.00;30.25;;;;;-144.24;100.00;114865.94;5113218;27;70852;-70
2024/01/18 07:24:07;;;;;;;;;29.50;28.00;;;;;-144.24;100.00;114865.94;5102718;27;65488;-72
2024/01/18 07:26:33;;;;;;;;;36.25;34.00;;;;;-144.24;100.00;114865.94;5103727;27;45344;-72
2024/01/18 07:28:58;;;;;;;;;41.50;30.50;;;;;-144.24;100.00;114865.94;5106048;27;74625;-70
2024/01/18 07:31:23;;;;;;;;;32.25;30.75;;;;;-144.24;100.00;114865.94;5099310;27;66574;-70
2024/01/18 07:33:50;;;;;;;;;37.50;33.75;;;;;-144.24;100.00;114865.94;5107013;27;65114;-70
2024/01/18 07:36:17;;;;;;;;;42.00;36.00;;;;;-144.24;100.00;114865.94;5103350;27;45609;-70
2024/01/18 07:38:43;;;;;;;;;41.75;34.25;;;;;-144.24;100.00;114865.94;5108806;27;45802;-72
2024/01/18 07:41:08;;;;;;;;;48.00;42.00;;;;;-144.24;100.00;114865.94;5106481;27;45534;-72
2024/01/18 07:43:34;;;;;;;;;33.75;31.00;;;;;-144.24;100.00;114865.94;5105443;27;45766;-74
2024/01/18 07:45:59;;;;;;;;;45.00;35.50;;;;;-144.24;100.00;114865.94;5107739;27;57724;-75
2024/01/18 07:48:25;;;;;;;;;43.25;35.75;;;;;-144.24;100.00;114865.94;5106908;27;66315;-73
2024/01/18 07:50:50;;;;;;;;;34.00;32.50;;;;;-144.24;100.00;114865.94;5105749;27;45480;-73
2024/01/18 07:53:16;;;;;;;;;42.75;32.00;;;;;-144.24;100.00;114865.94;5115352;27;71025;-74
2024/01/18 07:55:43;;;;;;;;;51.00;35.00;;;;;-144.24;100.00;114865.94;5108646;27;46539;-74
2024/01/18 07:58:08;;;;;;;;;46.75;42.75;;;;;-144.24;100.00;114865.94;5113027;27;47258;-73
2024/01/18 08:00:35;;;;;;;;;45.00;31.50;;;;;-144.24;100.00;114865.94;5109123;27;45427;-73
2024/01/18 08:03:00;;;;;;;;;43.50;39.00;;;;;-144.24;100.00;114865.94;5110426;27;62608;-73
2024/01/18 08:05:27;;;;;;;;;46.75;35.50;;;;;-144.24;100.00;114865.94;5109674;27;45527;-74
2024/01/18 08:07:53;;;;;;;;;43.00;37.00;;;;;-144.24;100.00;114865.94;5112307;27;47389;-73
2024/01/18 08:10:18;;;;;;;;;34.50;29.25;;;;;-144.24;100.00;114865.94;5106252;27;45550;-76
2024/01/18 08:12:44;;;;;;;;;48.50;40.50;;;;;-144.24;100.00;114865.94;5086133;27;48071;-77
2024/01/18 08:15:11;;;;;;;;;46.75;34.50;;;;;-144.24;100.00;114865.94;5092496;27;45778;-74
2024/01/18 08:17:36;;;;;;;;;44.25;37.25;;;;;-144.24;100.00;114865.94;5107821;27;46077;-74
2024/01/18 08:20:04;;;;;;;;;47.25;40.50;;;;;-144.24;100.00;114865.94;5113247;27;68947;-73
2024/01/18 08:22:29;;;;;;;;;38.25;33.50;;;;;-144.24;100.00;114865.94;5110173;27;45433;-72
2024/01/18 08:24:56;;;;;;;;;52.00;40.50;;;;;-144.24;100.00;114865.94;5108937;27;66999;-75
2024/01/18 08:27:23;;;;;;;;;47.00;39.75;;;;;-144.24;100.00;114865.94;5110710;27;47788;-74
2024/01/18 08:29:49;;;;;;;;;35.75;26.25;;;;;-144.24;100.00;114865.94;5110764;27;45570;-72
2024/01/18 08:32:14;;;;;;;;;54.25;41.25;;;;;-144.24;100.00;114865.94;5103574;27;46474;-73
2024/01/18 08:34:39;;;;;;;;;49.25;41.50;;;;;-144.24;100.00;114865.94;5114456;27;45502;-75
2024/01/18 08:37:05;;;;;;;;;51.50;38.25;;;;;-144.24;100.00;114865.94;5104870;27;69353;-72
2024/01/18 08:39:30;;;;;;;;;48.00;41.00;;;;;-144.24;100.00;114865.94;5113778;27;45511;-77
2024/01/18 08:41:59;;;;;;;;;51.25;42.50;;;;;-144.24;100.00;114865.94;5092650;27;45343;-73
2024/01/18 08:44:24;;;;;;;;;45.25;38.75;;;;;-144.24;100.00;114865.94;5112844;27;45361;-74
2024/01/18 08:46:49;;;;;;;;;47.25;41.50;;;;;-144.24;100.00;114865.94;5108790;27;46677;-75
2024/01/18 08:49:16;;;;;;;;;47.00;40.25;;;;;-144.24;100.00;114865.94;5111110;27;69567;-74
2024/01/18 08:51:41;;;;;;;;;60.50;45.00;;;;;-144.24;100.00;114865.94;5104730;27;45476;-74
2024/01/18 08:54:07;;;;;;;;;60.75;46.75;;;;;-144.24;100.00;114865.94;5091565;27;66529;-73
2024/01/18 08:56:35;;;;;;;;;50.25;43.00;;;;;-144.24;100.00;114865.94;5110172;27;46712;-72
2024/01/18 08:59:00;;;;;;;;;51.00;42.50;;;;;-144.24;100.00;114865.94;5077292;27;45537;-73
2024/01/18 09:01:25;;;;;;;;;49.50;42.00;;;;;-144.24;100.00;114865.94;5095154;27;45950;-74
2024/01/18 09:03:51;;;;;;;;;51.50;43.25;;;;;-144.24;100.00;114865.94;5092672;27;45395;-73
2024/01/18 09:06:16;;;;;;;;;62.00;43.75;;;;;-144.24;100.00;114865.94;5108251;27;63307;-74
2024/01/18 09:08:42;;;;;;;;;65.75;47.00;;;;;-144.24;100.00;114865.94;5112776;27;45460;-73
2024/01/18 09:11:08;;;;;;;;;48.75;42.50;;;;;-144.24;100.00;114865.94;5118635;22;45533;-73
2024/01/18 09:13:33;;;;;;;;;66.25;48.75;;;;;-144.24;100.00;114865.94;5100126;22;45600;-74
2024/01/18 09:15:59;;;;;;;;;50.50;44.00;;;;;-144.24;100.00;114865.94;5072008;27;45746;-78
2024/01/18 09:18:25;;;;;;;;;47.25;42.75;;;;;-144.24;100.00;114865.94;5085909;27;45509;-75
2024/01/18 09:20:50;;;;;;;;;64.75;45.50;;;;;-144.24;100.00;114865.94;5083853;27;57986;-76
2024/01/18 09:23:16;;;;;;;;;51.25;45.00;;;;;-144.24;100.00;114865.94;5074328;27;45482;-73
2024/01/18 09:25:42;;;;;;;;;56.00;41.75;;;;;-144.24;100.00;114865.94;5085616;27;46547;-74
2024/01/18 09:28:07;;;;;;;;;56.25;44.50;;;;;-144.24;100.00;114865.94;5091662;27;45498;-75
2024/01/18 09:30:34;;;;;;;;;45.50;36.25;;;;;-144.24;100.00;114865.94;5085432;27;45552;-74
2024/01/18 09:33:00;;;;;;;;;58.00;43.75;;;;;-144.24;100.00;114865.94;5096266;27;45506;-75
2024/01/18 09:35:25;;;;;;;;;47.50;40.50;;;;;-144.24;100.00;114865.94;5092165;27;46437;-73
2024/01/18 09:37:51;;;;;;;;;62.75;47.75;;;;;-144.24;100.00;114865.94;5092212;27;53172;-76
2024/01/18 09:40:16;;;;;;;;;57.50;48.25;;;;;-144.24;100.00;114865.94;5093378;27;70383;-73
2024/01/18 09:42:46;;;;;;;;;61.50;47.50;;;;;-144.24;100.00;114865.94;5077856;27;59657;-72
2024/01/18 09:45:14;;;;;;;;;63.00;47.75;;;;;-144.24;100.00;114865.94;5095943;27;47549;-73
2024/01/18 09:47:41;;;;;;;;;55.25;46.25;;;;;-144.24;100.00;114865.94;5091803;27;45454;-74
2024/01/18 09:50:07;;;;;;;;;53.75;44.75;;;;;-144.24;100.00;114865.94;5086802;27;45477;-73
2024/01/18 09:52:33;;;;;;;;;56.50;44.00;;;;;-144.24;100.00;114865.94;5077103;27;45353;-74
2024/01/18 09:54:58;;;;;;;;;53.50;41.75;;;;;-144.24;100.00;114865.94;5093647;27;46408;-73
2024/01/18 09:57:32;;;;;;;;;49.25;43.75;;;;;-144.24;100.00;114865.94;5091429;27;45479;-74
2024/01/18 10:00:00;;;;;;;;;110.25;80.00;;;;;-144.24;100.00;114865.94;5073836;27;45584;-75
2024/01/18 10:02:26;;;;;;;;;93.75;70.25;;;;;-144.24;100.00;114865.94;5082599;27;45625;-73
2024/01/18 10:04:55;;;;;;;;;98.00;71.50;;;;;-144.24;100.00;114865.94;5093849;27;46464;-74
2024/01/18 10:07:20;;;;;;;;;104.75;82.00;;;;;-144.24;100.00;114865.94;5219689;22;48043;-74
2024/01/18 10:09:46;;;;;;;;;108.25;85.25;;;;;-144.24;100.00;114865.94;5096037;27;45563;-74
2024/01/18 10:12:11;;;;;;;;;38.75;36.00;;;;;-144.24;100.00;114865.94;5087444;27;45710;-74
2024/01/18 10:14:41;;;;;;;;;51.75;41.50;;;;;-144.24;100.00;114865.94;5086065;27;46568;-73
2024/01/18 10:47:22;;;;;;;;;77.50;57.50;;;;;-144.24;100.00;114865.94;5058499;28;45446;-75
2024/01/18 10:49:49;;;;;;;;;48.50;38.25;;;;;-144.24;100.00;114865.94;5068061;28;65312;-76
2024/01/18 10:52:15;;;;;;;;;75.50;56.50;;;;;-144.24;100.00;114865.94;5068282;28;75414;-75
2024/01/18 10:54:41;;;;;;;;;60.25;47.50;;;;;-144.24;100.00;114865.94;5051295;28;66263;-73
2024/01/18 10:57:06;;;;;;;;;46.25;39.25;;;;;-144.24;100.00;114865.94;5068623;28;62535;-72
2024/01/18 10:59:31;;;;;;;;;59.25;45.00;;;;;-144.24;100.00;114865.94;5072133;28;46904;-71
2024/01/18 11:01:59;;;;;;;;;48.25;40.50;;;;;-144.24;100.00;114865.94;5065196;28;46247;-72
2024/01/18 11:04:26;;;;;;;;;41.50;36.75;;;;;-144.24;100.00;114865.94;5070693;28;45521;-72
2024/01/18 11:06:52;;;;;;;;;56.25;43.00;;;;;-144.24;100.00;114865.94;5054235;28;45979;-71
2024/01/18 11:09:19;;;;;;;;;39.00;35.25;;;;;-144.24;100.00;114865.94;5067989;28;45550;-72
2024/01/18 11:11:45;;;;;;;;;40.00;38.25;;;;;-144.24;100.00;114865.94;5073199;28;47185;-71